Tropical Cyclones
[Index]
Main Index Home Page Stock Weather Photos Extreme Storms Discussion Storm News and Storm Chasing Reports Tropical Cyclones / Hurricanes / Typhoons Weather Data and Links Wild Fires / Bushfires Weather Observation Techniques Weather Picture Catalogue Tornado Pictures and Reports Stock Video Footage and DVDs for sale
Season 1984-1985 Tropical Cyclone MARGOT Track Map
Season 1984-1985 Summaries: [BoM-AU] [JTWC-AU] [JTWC-SIO] [JTWC-SPAC] [JTWC-SH]
<<- Previous TC | BoM 1984-1985 Season | Next TC ->>

click for intensity scale information  Lat/long Grid: Show Hide

 Date Labels: Show Hide

Bureau of Meteorology Tropical Cyclone Data

Name: MARGOT
Number: 678 / 198485_16

10 Apr 1985 03:00 UTC to 25 Apr 1985 00:00 UTC

    date/time    lat    long    hPa   cat  kts
1985-04-10 03    6.8   103.8   1005                     
1985-04-10 18    7.0   103.9   1004                     
1985-04-11 00    7.1   103.9   1002                     
1985-04-11 06    7.3   103.5   1000                     
1985-04-11 12    7.5   103.1    998                     
1985-04-11 18    7.8   102.6    997         35          
1985-04-12 00    8.1   102.0    990    1    45          
1985-04-12 06    8.3   101.2    985    2    54          
1985-04-12 12    8.7   100.3    980    2    60          
1985-04-12 18    9.3    99.4    976    2    64          
1985-04-13 00    9.6    98.9    971    2    72          
1985-04-13 06    9.8    98.7    966    3    78          
1985-04-13 12   10.0    99.0    964    3    80          
1985-04-13 18   10.3    99.8    962    3    82          
1985-04-14 00   10.9   100.8    959    3    86          
1985-04-14 06   11.7   101.5    956    3    89          
1985-04-14 12   12.7   102.2    954    4    91          
1985-04-14 18   13.9   103.1    942    4    101          
1985-04-15 00   14.9   104.3    946    4    99          
1985-04-15 06   15.9   105.5    950    4    93          
1985-04-15 12   16.7   106.6    954    4    89          
1985-04-15 18   17.6   107.5    961    3    84          
1985-04-16 00   18.3   108.3    968    3    76          
1985-04-16 06   18.8   109.1    976    2    66          
1985-04-16 12   19.0   109.8    980    2    60          
1985-04-16 18   19.1   110.4    984    2    54          
1985-04-17 00   18.9   110.8    986    1    52          
1985-04-17 06   18.5   110.9    988    1    51          
1985-04-17 12   18.3   110.8    989    1    47          
1985-04-17 18   18.2   110.5    990    1    47          
1985-04-18 00   18.1   110.3    990    1    47          
1985-04-18 06   17.9   110.1    989    1    47          
1985-04-18 12   17.8   110.2    988    1    51          
1985-04-18 18   17.6   110.2    987    1    51          
1985-04-19 00   17.4   110.3    985    2    54          
1985-04-19 06   17.2   110.8    984    2    54          
1985-04-19 12   17.3   111.2    985    2    54          
1985-04-19 18   17.5   111.6    987    1    51          
1985-04-20 00   17.7   111.8    988    1    51          
1985-04-20 06   17.8   111.6    989    1    47          
1985-04-20 12   17.9   111.4    990    1    47          
1985-04-20 18   18.0   111.2    997         35          
1985-04-21 00   18.0   111.0    997         35          
1985-04-21 06   18.1   110.9    998                     
1985-04-21 12   18.1   110.8    998                     
1985-04-21 18   18.1   110.7    999                     
1985-04-22 00   18.1   110.6   1000                     
1985-04-22 06   18.0   110.5   1000                     
1985-04-22 12   18.0   110.5   1001                     
1985-04-22 18   18.0   110.4   1001                     
1985-04-23 00   17.9   110.3   1002                     
1985-04-23 06   18.2   110.2   1003                     
1985-04-23 12   18.5   110.0   1003                     
1985-04-23 18   18.7   109.7   1004                     
1985-04-24 00   18.9   109.3   1005                     
1985-04-24 06   19.1   108.9   1006                     
1985-04-24 12   19.3   108.5   1007                     
1985-04-24 18   19.4   107.7   1007                     
1985-04-25 00   19.4   106.9   1008                     
Winds are 10-min average.

Tropical cyclone tracks developed by Michael Bath using data from the Bureau of Meteorology and Google Maps.


[Australian Severe Weather index] [Copyright Notice] [Email Contacts] [Search This Site] [Privacy Policy]
Document: tropical_cyclone_margot.htm Updated: 30 May 2013